Time;durP1;ratioP1;P1;durP2;ratioP2;P2;SDS_P1;SDS_P2;PMS_P1;PMS_P2;Temp;Humidity;BMP_temperature;BMP_pressure;BME280_temperature;BME280_humidity;BME280_pressure;Samples;Min_cycle;Max_cycle;Signal;HPM_P1;HPM_P2
2023/04/22 00:02:15;;;;;;;7.57;4.13;;;12.60;99.90;;;;;;5008675;28;20862;-64
2023/04/22 00:04:42;;;;;;;5.22;3.88;;;12.50;99.90;;;;;;5025809;28;20201;-64
2023/04/22 00:07:09;;;;;;;5.05;4.50;;;12.40;99.90;;;;;;5029821;28;20201;-64
2023/04/22 00:09:36;;;;;;;5.38;3.70;;;12.40;99.90;;;;;;5022425;28;20211;-64
2023/04/22 00:12:04;;;;;;;5.45;3.83;;;12.40;99.90;;;;;;5026780;28;20581;-64
2023/04/22 00:14:31;;;;;;;6.80;4.45;;;12.40;99.90;;;;;;5038138;28;20219;-63
2023/04/22 00:16:58;;;;;;;5.78;3.53;;;12.40;99.90;;;;;;4990754;28;20462;-64
2023/04/22 00:19:25;;;;;;;10.73;3.92;;;12.40;99.90;;;;;;4995927;28;20206;-63
2023/04/22 00:21:51;;;;;;;8.00;3.83;;;12.30;99.90;;;;;;4981154;28;20485;-64
2023/04/22 00:24:18;;;;;;;7.22;3.72;;;12.30;99.90;;;;;;4991643;28;20206;-64
2023/04/22 00:26:45;;;;;;;6.40;4.25;;;12.30;99.90;;;;;;4993005;28;20233;-64
2023/04/22 00:29:13;;;;;;;5.40;3.33;;;12.30;99.90;;;;;;5010489;28;20210;-64
2023/04/22 00:31:40;;;;;;;6.45;3.65;;;12.30;99.90;;;;;;4972950;28;20810;-63
2023/04/22 00:34:07;;;;;;;5.15;4.40;;;12.30;99.90;;;;;;4986464;28;20222;-64
2023/04/22 00:36:34;;;;;;;6.30;4.43;;;12.20;99.90;;;;;;4990353;28;20207;-64
2023/04/22 00:39:01;;;;;;;4.40;3.83;;;12.20;99.90;;;;;;4978554;28;20424;-64
2023/04/22 00:41:29;;;;;;;4.85;3.78;;;12.30;99.90;;;;;;4998282;28;20743;-64
2023/04/22 00:43:58;;;;;;;5.88;4.00;;;12.20;99.90;;;;;;4993391;28;20202;-64
2023/04/22 00:46:27;;;;;;;6.07;3.70;;;12.20;99.90;;;;;;5007638;28;20206;-64
2023/04/22 00:48:55;;;;;;;5.28;3.92;;;12.20;99.90;;;;;;4970876;28;20207;-63
2023/04/22 00:51:21;;;;;;;5.95;4.00;;;12.10;99.90;;;;;;4999220;28;20210;-64
2023/04/22 00:53:48;;;;;;;4.32;3.92;;;12.10;99.90;;;;;;4979139;28;20654;-64
2023/04/22 00:56:15;;;;;;;6.47;3.75;;;12.10;99.90;;;;;;5001640;28;20683;-64
2023/04/22 00:58:43;;;;;;;6.95;3.97;;;12.10;99.90;;;;;;4994628;28;20241;-64
2023/04/22 01:01:11;;;;;;;4.60;3.67;;;12.10;99.90;;;;;;4997887;28;21999;-64
2023/04/22 01:03:40;;;;;;;5.50;3.83;;;12.00;99.90;;;;;;4975194;28;20242;-64
2023/04/22 01:06:07;;;;;;;8.20;4.00;;;12.00;99.90;;;;;;5007599;28;20198;-64
2023/04/22 01:08:35;;;;;;;8.07;4.22;;;12.00;99.90;;;;;;4982511;28;20294;-64
2023/04/22 01:11:02;;;;;;;6.07;3.90;;;12.00;99.90;;;;;;4985270;28;20672;-64
2023/04/22 01:13:31;;;;;;;7.18;4.03;;;12.00;99.90;;;;;;5008279;28;20206;-64
2023/04/22 01:15:58;;;;;;;5.32;4.10;;;11.90;99.90;;;;;;4981378;28;20202;-65
2023/04/22 01:18:26;;;;;;;5.18;3.97;;;11.90;99.90;;;;;;5028538;28;20336;-64
2023/04/22 01:20:55;;;;;;;6.95;3.83;;;11.90;99.90;;;;;;5005766;28;20209;-64
2023/04/22 01:23:23;;;;;;;5.47;3.97;;;11.90;99.90;;;;;;5038659;28;20207;-64
2023/04/22 01:25:50;;;;;;;6.63;4.20;;;11.90;99.90;;;;;;5031175;28;20197;-64
2023/04/22 01:28:17;;;;;;;5.63;4.28;;;11.90;99.90;;;;;;5034871;28;20197;-64
2023/04/22 01:30:44;;;;;;;10.02;4.80;;;11.90;99.90;;;;;;5036344;28;20207;-63
2023/04/22 01:33:11;;;;;;;5.43;4.38;;;11.80;99.90;;;;;;5049138;28;20241;-64
2023/04/22 01:35:40;;;;;;;13.35;4.15;;;11.70;99.90;;;;;;5017806;28;20904;-64
2023/04/22 01:38:09;;;;;;;5.43;4.15;;;11.70;99.90;;;;;;5034435;28;20232;-64
2023/04/22 01:40:38;;;;;;;9.63;4.30;;;11.70;99.90;;;;;;5037010;28;20573;-64
2023/04/22 01:43:05;;;;;;;6.13;4.72;;;11.70;99.90;;;;;;5034068;28;20704;-64
2023/04/22 01:45:32;;;;;;;9.23;4.28;;;11.60;99.90;;;;;;5034211;28;20205;-64
2023/04/22 01:47:59;;;;;;;5.55;4.32;;;11.60;99.90;;;;;;5044956;28;20229;-64
2023/04/22 01:50:25;;;;;;;7.63;4.38;;;11.60;99.90;;;;;;5045447;28;20666;-64
2023/04/22 01:52:53;;;;;;;5.82;4.15;;;11.50;99.90;;;;;;5014867;28;20216;-63
2023/04/22 01:55:20;;;;;;;8.00;4.30;;;11.50;99.90;;;;;;5024460;28;20674;-64
2023/04/22 01:57:48;;;;;;;5.03;4.32;;;11.40;99.90;;;;;;5043004;28;20595;-64
2023/04/22 02:00:15;;;;;;;5.50;4.13;;;11.40;99.90;;;;;;5021651;28;20201;-64
2023/04/22 02:02:42;;;;;;;5.80;4.18;;;11.30;99.90;;;;;;5030629;28;20201;-64
2023/04/22 02:05:09;;;;;;;6.88;4.30;;;11.30;99.90;;;;;;5034721;28;20210;-64
2023/04/22 02:07:36;;;;;;;5.90;4.28;;;11.20;99.90;;;;;;5009040;28;20232;-64
2023/04/22 02:10:03;;;;;;;5.68;4.00;;;11.00;99.90;;;;;;5017928;28;22169;-64
2023/04/22 02:12:31;;;;;;;5.85;4.70;;;11.00;99.90;;;;;;5042508;28;20867;-64
2023/04/22 02:14:59;;;;;;;8.07;4.20;;;10.90;99.90;;;;;;5007553;28;20318;-64
2023/04/22 02:17:26;;;;;;;4.95;4.45;;;10.90;99.90;;;;;;5021879;28;20236;-64
2023/04/22 02:19:53;;;;;;;6.22;4.53;;;10.90;99.90;;;;;;5034174;28;20781;-64
2023/04/22 02:22:20;;;;;;;12.35;4.38;;;10.80;99.90;;;;;;5032083;28;20205;-64
2023/04/22 02:24:47;;;;;;;6.68;4.32;;;10.70;99.90;;;;;;5010902;28;20837;-64
2023/04/22 02:27:14;;;;;;;6.53;4.85;;;10.60;99.90;;;;;;5031294;28;20200;-64
2023/04/22 02:29:41;;;;;;;9.02;4.65;;;10.60;99.90;;;;;;5029158;28;20202;-64
2023/04/22 02:32:09;;;;;;;4.82;4.25;;;10.50;99.90;;;;;;5028735;28;20235;-64
2023/04/22 02:34:36;;;;;;;9.13;4.75;;;10.50;99.90;;;;;;5028196;28;20217;-64
2023/04/22 02:37:03;;;;;;;9.52;4.88;;;10.40;99.90;;;;;;5040782;28;20205;-64
2023/04/22 02:39:29;;;;;;;4.85;4.35;;;10.50;99.90;;;;;;5013926;28;20237;-64
2023/04/22 02:41:56;;;;;;;7.88;4.70;;;10.50;99.90;;;;;;5027228;28;20201;-64
2023/04/22 02:44:23;;;;;;;18.23;5.05;;;10.70;99.90;;;;;;5031509;28;20209;-64
2023/04/22 02:46:50;;;;;;;8.60;4.90;;;10.80;99.90;;;;;;5023423;28;20209;-64
2023/04/22 02:49:18;;;;;;;9.30;5.03;;;10.90;99.90;;;;;;5028519;28;20201;-64
2023/04/22 02:51:45;;;;;;;10.23;4.93;;;10.90;99.90;;;;;;5030114;28;20210;-64
2023/04/22 02:54:11;;;;;;;4.80;4.20;;;11.00;99.90;;;;;;5010258;28;20206;-64
2023/04/22 02:56:38;;;;;;;7.20;5.15;;;11.00;99.90;;;;;;5020578;28;20204;-64
2023/04/22 02:59:05;;;;;;;6.50;5.05;;;11.00;99.90;;;;;;5040011;28;20232;-64
2023/04/22 03:01:32;;;;;;;5.95;5.00;;;11.10;99.90;;;;;;5033353;28;20207;-65
2023/04/22 03:03:58;;;;;;;6.40;5.10;;;11.00;99.90;;;;;;5023010;28;20205;-64
2023/04/22 03:06:27;;;;;;;5.18;4.45;;;11.00;99.90;;;;;;5029186;28;20244;-64
2023/04/22 03:08:53;;;;;;;8.82;5.10;;;11.00;99.90;;;;;;5010228;28;20216;-64
2023/04/22 03:11:20;;;;;;;7.68;5.22;;;11.00;99.90;;;;;;5030869;28;20209;-64
2023/04/22 03:13:47;;;;;;;4.82;4.40;;;11.00;99.90;;;;;;5039209;28;20197;-64
2023/04/22 03:16:14;;;;;;;9.77;5.35;;;11.10;99.90;;;;;;5025243;28;20207;-64
2023/04/22 03:18:40;;;;;;;8.70;5.10;;;10.90;99.90;;;;;;5031284;28;20259;-64
2023/04/22 03:21:07;;;;;;;5.95;5.10;;;10.90;99.90;;;;;;5030013;28;20196;-64
2023/04/22 03:23:35;;;;;;;8.90;5.80;;;10.90;99.90;;;;;;5037869;28;20649;-64
2023/04/22 03:26:02;;;;;;;8.50;5.53;;;10.80;99.90;;;;;;5011603;28;20633;-64
2023/04/22 03:28:29;;;;;;;5.82;4.90;;;10.90;99.90;;;;;;5037322;28;20201;-64
2023/04/22 03:30:56;;;;;;;8.30;5.50;;;10.80;99.90;;;;;;5041327;28;20198;-64
2023/04/22 03:33:22;;;;;;;7.97;5.18;;;10.80;99.90;;;;;;5022691;28;20662;-64
2023/04/22 03:35:49;;;;;;;9.05;5.65;;;10.80;99.90;;;;;;5044004;28;20204;-64
2023/04/22 03:38:16;;;;;;;7.50;4.97;;;10.80;99.90;;;;;;5030337;28;20315;-64
2023/04/22 03:40:44;;;;;;;10.30;5.22;;;10.80;99.90;;;;;;5014677;28;20205;-64
2023/04/22 03:43:11;;;;;;;6.78;5.22;;;10.80;99.90;;;;;;5029821;28;20208;-64
2023/04/22 03:45:38;;;;;;;6.07;5.35;;;10.80;99.90;;;;;;5042296;28;20201;-64
2023/04/22 03:48:05;;;;;;;6.38;5.68;;;10.80;99.90;;;;;;5025245;28;20205;-64
2023/04/22 03:50:33;;;;;;;8.77;5.40;;;10.80;99.90;;;;;;5032649;28;20205;-64
2023/04/22 03:52:59;;;;;;;11.90;5.28;;;10.90;99.90;;;;;;5031950;28;20761;-64
2023/04/22 03:55:26;;;;;;;7.97;5.63;;;10.90;99.90;;;;;;5040297;28;20204;-64
2023/04/22 03:57:54;;;;;;;7.03;5.43;;;10.90;99.90;;;;;;5007521;28;20212;-64
2023/04/22 04:00:21;;;;;;;7.78;5.90;;;11.00;99.90;;;;;;5032908;28;20281;-64
2023/04/22 04:02:48;;;;;;;6.22;5.13;;;11.00;99.90;;;;;;5031247;28;22404;-64
2023/04/22 04:05:15;;;;;;;9.30;4.95;;;11.10;99.90;;;;;;5030536;28;20213;-64
2023/04/22 04:07:42;;;;;;;8.32;5.97;;;11.10;99.90;;;;;;5026954;28;20579;-64
2023/04/22 04:10:10;;;;;;;9.50;5.85;;;11.10;99.90;;;;;;5037333;28;20201;-64
2023/04/22 04:12:37;;;;;;;6.88;6.03;;;11.20;99.90;;;;;;5013736;28;20212;-64
2023/04/22 04:15:07;;;;;;;7.72;5.63;;;11.20;99.90;;;;;;5021573;28;20224;-63
2023/04/22 04:17:34;;;;;;;7.78;5.53;;;11.20;99.90;;;;;;5039217;28;20235;-64
2023/04/22 04:20:01;;;;;;;7.93;5.68;;;11.20;99.90;;;;;;5020942;28;20230;-63
2023/04/22 04:22:28;;;;;;;8.10;5.65;;;11.20;99.90;;;;;;5004625;28;20197;-64
2023/04/22 04:24:54;;;;;;;9.73;6.35;;;11.20;99.90;;;;;;5036508;28;20201;-64
2023/04/22 04:27:22;;;;;;;6.63;5.90;;;11.20;99.90;;;;;;5017718;28;20197;-64
2023/04/22 04:29:49;;;;;;;9.27;6.00;;;11.30;99.90;;;;;;5018116;28;20207;-64
2023/04/22 04:32:18;;;;;;;9.55;6.03;;;11.30;99.90;;;;;;5039877;28;20668;-64
2023/04/22 04:34:44;;;;;;;10.02;5.65;;;11.30;99.90;;;;;;5018580;28;20811;-64
2023/04/22 04:37:11;;;;;;;6.88;5.70;;;11.30;99.90;;;;;;5019824;28;20197;-64
2023/04/22 04:39:38;;;;;;;7.25;5.72;;;11.30;99.90;;;;;;5022522;28;20516;-64
2023/04/22 04:42:05;;;;;;;9.02;6.50;;;11.30;99.90;;;;;;5040223;28;20201;-64
2023/04/22 04:44:32;;;;;;;11.70;5.57;;;11.30;99.90;;;;;;5002457;28;20212;-64
2023/04/22 04:46:59;;;;;;;11.80;5.63;;;11.20;99.90;;;;;;5027832;28;20227;-64
2023/04/22 04:49:29;;;;;;;9.40;6.55;;;11.20;99.90;;;;;;5029820;28;20582;-63
2023/04/22 04:51:56;;;;;;;7.38;6.20;;;11.20;99.90;;;;;;5029094;28;20201;-64
2023/04/22 04:54:23;;;;;;;7.28;5.80;;;11.20;99.90;;;;;;5023494;28;20204;-64
2023/04/22 04:56:50;;;;;;;8.93;6.38;;;11.20;99.90;;;;;;5033925;28;20189;-63
2023/04/22 04:59:17;;;;;;;7.40;5.70;;;11.20;99.90;;;;;;5025898;28;20225;-64
2023/04/22 05:01:43;;;;;;;10.27;7.10;;;11.20;99.90;;;;;;5009851;28;20890;-64
2023/04/22 05:04:10;;;;;;;8.25;6.22;;;11.20;99.90;;;;;;5040808;28;20204;-63
2023/04/22 05:06:38;;;;;;;10.40;5.85;;;11.20;99.90;;;;;;5018343;28;20555;-64
2023/04/22 05:09:06;;;;;;;8.95;6.57;;;11.20;99.90;;;;;;5025291;28;20201;-64
2023/04/22 05:11:33;;;;;;;7.07;5.82;;;11.10;99.90;;;;;;5036122;28;20343;-63
2023/04/22 05:14:00;;;;;;;9.20;6.30;;;11.20;99.90;;;;;;5041501;28;20213;-63
2023/04/22 05:16:27;;;;;;;8.85;6.70;;;11.20;99.90;;;;;;4987896;28;20213;-63
2023/04/22 05:18:54;;;;;;;7.38;6.10;;;11.30;99.90;;;;;;5041981;28;20259;-64
2023/04/22 05:21:20;;;;;;;8.38;6.60;;;11.30;99.90;;;;;;5029456;28;20208;-63
2023/04/22 05:23:49;;;;;;;12.73;6.55;;;11.40;99.90;;;;;;5028013;28;20643;-64
2023/04/22 05:26:15;;;;;;;8.18;6.10;;;11.40;99.90;;;;;;5015818;28;20220;-63
2023/04/22 05:28:42;;;;;;;8.82;6.20;;;11.50;99.90;;;;;;5033892;28;20310;-64
2023/04/22 05:31:09;;;;;;;8.13;5.88;;;11.50;99.90;;;;;;5008733;28;20205;-63
2023/04/22 05:33:36;;;;;;;8.15;6.50;;;11.60;99.90;;;;;;5026321;28;20537;-64
2023/04/22 05:36:02;;;;;;;8.55;5.97;;;11.60;99.90;;;;;;4987599;28;20205;-64
2023/04/22 05:38:29;;;;;;;8.80;6.38;;;11.70;99.90;;;;;;5023821;28;20236;-64
2023/04/22 05:40:57;;;;;;;8.23;6.22;;;11.80;99.90;;;;;;5025012;28;20220;-64
2023/04/22 05:43:24;;;;;;;9.15;6.63;;;11.80;99.90;;;;;;5044187;28;20216;-64
2023/04/22 05:45:51;;;;;;;8.85;5.57;;;11.90;99.90;;;;;;5012609;28;20586;-64
2023/04/22 05:48:18;;;;;;;9.48;6.28;;;11.90;99.90;;;;;;5024390;28;20955;-64
2023/04/22 05:50:44;;;;;;;12.15;6.50;;;12.00;99.90;;;;;;5030259;28;21836;-64
2023/04/22 05:53:11;;;;;;;6.53;5.88;;;12.00;99.90;;;;;;5026741;28;20799;-64
2023/04/22 05:55:38;;;;;;;9.90;6.25;;;12.10;99.90;;;;;;5021430;28;20202;-64
2023/04/22 05:58:06;;;;;;;7.85;5.75;;;12.10;99.90;;;;;;5022155;28;20205;-64
2023/04/22 06:00:33;;;;;;;9.77;6.13;;;12.10;99.90;;;;;;5026245;28;20642;-63
2023/04/22 06:03:00;;;;;;;8.18;5.47;;;12.20;99.90;;;;;;4987443;28;20975;-64
2023/04/22 06:05:26;;;;;;;8.23;6.50;;;12.20;99.90;;;;;;5039063;28;20204;-64
2023/04/22 06:07:53;;;;;;;7.80;5.90;;;12.20;99.90;;;;;;5018763;28;20204;-64
2023/04/22 06:10:20;;;;;;;8.77;6.35;;;12.30;99.90;;;;;;5019981;28;20205;-64
2023/04/22 06:12:47;;;;;;;9.25;6.53;;;12.30;99.90;;;;;;5021615;28;20227;-64
2023/04/22 06:15:15;;;;;;;10.15;6.18;;;12.40;99.90;;;;;;5030327;28;20744;-64
2023/04/22 06:17:43;;;;;;;8.40;6.32;;;12.40;99.90;;;;;;4982040;28;1097238;-64
2023/04/22 06:20:11;;;;;;;11.82;5.78;;;12.50;99.90;;;;;;5019743;28;20477;-64
2023/04/22 06:22:38;;;;;;;10.13;6.40;;;12.50;99.90;;;;;;4979758;28;20392;-64
2023/04/22 06:25:06;;;;;;;8.75;6.10;;;12.50;99.90;;;;;;5004865;28;20193;-64
2023/04/22 06:27:32;;;;;;;11.18;6.70;;;12.50;99.90;;;;;;5018831;28;20478;-64
2023/04/22 06:29:59;;;;;;;9.10;6.38;;;12.50;99.90;;;;;;5024728;28;20251;-64
2023/04/22 06:32:27;;;;;;;8.13;6.03;;;12.50;99.90;;;;;;5031860;28;20692;-64
2023/04/22 06:34:54;;;;;;;10.73;6.45;;;12.50;99.90;;;;;;5003993;28;20434;-64
2023/04/22 06:37:21;;;;;;;7.25;5.85;;;12.60;99.90;;;;;;5041974;28;20193;-64
2023/04/22 06:39:48;;;;;;;7.28;5.85;;;12.60;99.90;;;;;;5026539;28;20265;-64
2023/04/22 06:42:14;;;;;;;8.80;5.90;;;12.60;99.90;;;;;;5022955;28;20209;-64
2023/04/22 06:44:41;;;;;;;10.05;6.38;;;12.60;99.90;;;;;;5020278;28;20614;-64
2023/04/22 06:47:08;;;;;;;9.27;6.20;;;12.70;99.90;;;;;;5027960;28;20549;-64
2023/04/22 06:49:38;;;;;;;10.60;6.18;;;12.70;99.90;;;;;;5014223;28;20216;-64
2023/04/22 06:52:05;;;;;;;8.38;6.63;;;12.80;99.90;;;;;;5027306;28;20568;-64
2023/04/22 06:54:31;;;;;;;9.68;5.80;;;12.80;99.90;;;;;;5026057;28;20209;-64
2023/04/22 06:56:58;;;;;;;9.45;6.18;;;12.90;99.90;;;;;;5021082;28;20200;-64
2023/04/22 06:59:25;;;;;;;9.68;6.40;;;12.90;99.90;;;;;;5024058;28;20228;-64
2023/04/22 07:01:52;;;;;;;8.85;5.88;;;13.00;99.90;;;;;;4999715;28;20827;-64
2023/04/22 07:04:19;;;;;;;7.90;6.18;;;13.10;99.90;;;;;;5031922;28;20548;-64
2023/04/22 07:06:47;;;;;;;8.55;6.00;;;13.10;99.90;;;;;;4966377;28;20865;-64
2023/04/22 07:09:13;;;;;;;6.78;5.72;;;13.20;99.90;;;;;;5022558;28;20232;-64
2023/04/22 07:11:40;;;;;;;11.88;6.25;;;13.20;99.90;;;;;;5013799;28;20632;-64
2023/04/22 07:14:07;;;;;;;10.10;6.00;;;13.20;99.90;;;;;;5036012;28;20205;-64
2023/04/22 07:16:34;;;;;;;6.85;5.57;;;13.30;99.90;;;;;;5022158;28;20235;-64
2023/04/22 07:19:01;;;;;;;7.60;5.20;;;13.30;99.90;;;;;;5032457;28;20532;-64
2023/04/22 07:21:27;;;;;;;9.77;6.55;;;13.30;99.90;;;;;;5009289;28;20698;-65
2023/04/22 07:23:56;;;;;;;9.77;5.72;;;13.40;99.90;;;;;;5009751;28;20589;-64
2023/04/22 07:26:22;;;;;;;8.93;5.82;;;13.50;99.90;;;;;;5014975;28;20734;-64
2023/04/22 07:28:49;;;;;;;6.80;5.85;;;13.60;99.90;;;;;;5019462;28;20220;-64
2023/04/22 07:31:16;;;;;;;7.28;6.05;;;13.70;99.90;;;;;;5024362;28;20672;-64
2023/04/22 07:33:43;;;;;;;8.18;5.72;;;13.80;99.90;;;;;;5028894;28;20256;-64
2023/04/22 07:36:09;;;;;;;8.65;5.32;;;13.80;99.90;;;;;;5019149;28;20217;-64
2023/04/22 07:38:36;;;;;;;10.95;5.55;;;13.90;99.90;;;;;;5002280;28;20524;-64
2023/04/22 07:41:05;;;;;;;8.68;6.18;;;13.90;99.90;;;;;;5024969;28;20232;-64
2023/04/22 07:43:31;;;;;;;13.65;5.60;;;13.80;99.90;;;;;;5011339;28;20212;-64
2023/04/22 07:45:58;;;;;;;10.75;6.40;;;13.80;99.90;;;;;;5019770;28;26058;-64
2023/04/22 07:48:25;;;;;;;6.03;5.43;;;13.80;99.90;;;;;;5037704;28;20224;-64
2023/04/22 07:50:52;;;;;;;10.25;6.00;;;13.80;99.90;;;;;;5020424;28;20225;-65
2023/04/22 07:53:19;;;;;;;8.85;5.43;;;13.90;99.90;;;;;;5001995;28;20228;-64
2023/04/22 07:55:48;;;;;;;12.90;6.43;;;14.00;99.90;;;;;;4998064;28;20217;-64
2023/04/22 07:58:16;;;;;;;9.82;6.32;;;14.10;99.90;;;;;;5005819;28;20948;-64
2023/04/22 08:00:43;;;;;;;9.45;5.82;;;14.20;99.90;;;;;;5026676;28;20578;-64
2023/04/22 08:03:10;;;;;;;13.30;6.15;;;14.20;99.90;;;;;;4971492;28;20225;-64
2023/04/22 08:05:37;;;;;;;12.00;6.30;;;14.30;99.90;;;;;;5030293;28;20705;-64
2023/04/22 08:08:03;;;;;;;8.13;6.53;;;14.30;99.90;;;;;;4979226;28;27120;-64
2023/04/22 08:10:30;;;;;;;9.45;6.43;;;14.40;99.90;;;;;;5010165;28;21070;-64
2023/04/22 08:12:57;;;;;;;8.73;6.05;;;14.40;99.90;;;;;;5033087;28;20203;-64
2023/04/22 08:15:25;;;;;;;7.07;6.10;;;14.40;99.90;;;;;;5026998;28;20780;-64
2023/04/22 08:17:52;;;;;;;7.75;6.55;;;14.50;99.90;;;;;;5010676;28;20271;-64
2023/04/22 08:20:19;;;;;;;9.07;5.47;;;14.50;99.90;;;;;;5036010;28;20248;-64
2023/04/22 08:22:46;;;;;;;7.40;5.80;;;14.70;99.90;;;;;;5018575;28;21436;-64
2023/04/22 08:25:13;;;;;;;15.65;6.40;;;14.80;99.90;;;;;;4996744;28;20499;-63
2023/04/22 08:27:39;;;;;;;9.57;6.00;;;14.80;99.90;;;;;;5039492;28;20204;-64
2023/04/22 08:30:07;;;;;;;8.50;6.50;;;15.00;99.90;;;;;;5025955;28;20787;-64
2023/04/22 08:32:35;;;;;;;14.82;5.75;;;15.10;99.90;;;;;;5028041;28;20209;-64
2023/04/22 08:35:02;;;;;;;10.25;5.95;;;15.10;99.90;;;;;;5024272;28;21198;-64
2023/04/22 08:37:29;;;;;;;8.07;6.22;;;15.20;99.90;;;;;;5022927;28;20201;-64
2023/04/22 08:39:56;;;;;;;8.43;6.22;;;15.20;99.90;;;;;;5004810;28;20232;-64
2023/04/22 08:42:23;;;;;;;10.23;6.22;;;15.20;99.90;;;;;;5017658;28;20196;-64
2023/04/22 08:44:50;;;;;;;8.32;6.22;;;15.20;99.90;;;;;;5025677;28;20414;-64
2023/04/22 08:47:19;;;;;;;11.90;5.40;;;15.20;99.90;;;;;;5015703;28;20221;-64
2023/04/22 08:49:47;;;;;;;11.23;6.40;;;15.20;99.90;;;;;;5014613;28;20232;-64
2023/04/22 08:52:14;;;;;;;7.53;6.07;;;15.20;99.90;;;;;;5034801;28;20201;-64
2023/04/22 08:54:41;;;;;;;7.13;5.97;;;15.30;99.90;;;;;;4987740;28;20991;-64
2023/04/22 08:57:09;;;;;;;6.15;5.00;;;15.50;99.90;;;;;;5018652;28;20224;-64
2023/04/22 08:59:37;;;;;;;9.40;5.90;;;15.80;99.90;;;;;;5024062;28;21208;-64
2023/04/22 09:02:05;;;;;;;16.17;5.43;;;16.10;99.90;;;;;;5026059;28;20228;-64
2023/04/22 09:04:32;;;;;;;6.30;5.53;;;16.30;99.90;;;;;;5019950;28;20226;-64
2023/04/22 09:07:02;;;;;;;8.38;5.65;;;16.20;99.90;;;;;;5039271;28;20580;-64
2023/04/22 09:09:30;;;;;;;6.32;5.35;;;16.20;99.90;;;;;;5006025;28;20301;-64
2023/04/22 09:11:57;;;;;;;7.65;5.88;;;16.20;99.90;;;;;;5015777;28;21128;-64
2023/04/22 09:14:25;;;;;;;13.82;6.20;;;16.20;99.90;;;;;;5038765;28;20216;-64
2023/04/22 09:16:52;;;;;;;8.13;5.25;;;16.20;99.90;;;;;;5028605;28;20225;-65
2023/04/22 09:19:23;;;;;;;8.25;5.22;;;16.30;99.90;;;;;;5028858;28;20244;-64
2023/04/22 09:21:50;;;;;;;9.60;5.10;;;16.30;99.90;;;;;;5042446;28;20205;-65
2023/04/22 09:24:19;;;;;;;7.13;5.40;;;16.50;99.90;;;;;;5019193;28;20225;-64
2023/04/22 09:26:47;;;;;;;8.20;4.97;;;16.50;99.90;;;;;;4985942;28;20985;-65
2023/04/22 09:29:15;;;;;;;6.32;5.32;;;16.60;99.90;;;;;;5041049;28;20311;-64
2023/04/22 09:31:42;;;;;;;6.47;5.13;;;16.70;99.90;;;;;;5024604;28;20422;-64
2023/04/22 09:34:09;;;;;;;11.88;5.50;;;16.80;99.90;;;;;;5041277;28;20200;-64
2023/04/22 09:36:36;;;;;;;7.65;5.05;;;16.90;99.90;;;;;;5020854;28;20216;-64
2023/04/22 09:39:06;;;;;;;10.32;4.78;;;17.00;99.90;;;;;;5025991;28;20233;-65
2023/04/22 09:41:35;;;;;;;10.43;4.90;;;17.00;99.90;;;;;;5004015;28;21182;-65
2023/04/22 09:44:04;;;;;;;8.52;5.03;;;16.90;99.90;;;;;;5025111;28;20201;-64
2023/04/22 09:46:33;;;;;;;6.57;4.20;;;16.80;99.90;;;;;;5033710;28;20672;-64
2023/04/22 09:49:00;;;;;;;5.93;4.20;;;16.90;99.90;;;;;;5033958;28;20572;-65
2023/04/22 09:51:27;;;;;;;8.75;4.40;;;17.00;99.90;;;;;;5021377;28;20224;-64
2023/04/22 09:53:59;;;;;;;8.57;4.60;;;17.10;99.90;;;;;;5036481;28;20612;-65
2023/04/22 09:56:48;;;;;;;5.85;4.55;;;17.30;99.90;;;;;;5004550;28;20209;-65
2023/04/22 09:59:19;;;;;;;5.07;3.70;;;17.40;99.90;;;;;;5007563;28;20197;-64
2023/04/22 10:01:46;;;;;;;5.20;4.07;;;17.40;99.90;;;;;;5025790;28;20883;-64
2023/04/22 10:04:14;;;;;;;7.65;4.13;;;17.60;99.90;;;;;;5039766;28;20323;-65
2023/04/22 10:06:41;;;;;;;5.90;3.90;;;17.60;99.90;;;;;;5021125;28;20771;-64
2023/04/22 10:09:08;;;;;;;5.78;4.32;;;17.60;99.90;;;;;;5023397;28;20595;-65
2023/04/22 10:11:36;;;;;;;7.50;3.47;;;17.70;99.90;;;;;;5023722;28;20211;-64
2023/04/22 10:14:04;;;;;;;5.32;3.60;;;17.70;99.90;;;;;;5004248;28;20540;-64
2023/04/22 10:16:33;;;;;;;7.25;4.13;;;17.80;99.90;;;;;;5021972;28;20219;-64
2023/04/22 10:19:04;;;;;;;9.82;3.40;;;17.90;99.90;;;;;;5026573;28;20224;-64
2023/04/22 10:21:32;;;;;;;3.85;3.25;;;17.90;99.90;;;;;;5028430;28;20772;-64
2023/04/22 10:24:00;;;;;;;3.60;3.10;;;18.00;99.90;;;;;;5035083;28;20197;-64
2023/04/22 10:26:41;;;;;;;5.43;3.00;;;18.10;99.90;;;;;;5021761;28;20225;-64
2023/04/22 10:29:12;;;;;;;4.30;3.10;;;18.20;99.90;;;;;;5003202;28;20243;-65
2023/04/22 10:31:39;;;;;;;5.95;3.63;;;18.30;99.90;;;;;;5032656;28;20224;-65
2023/04/22 10:34:10;;;;;;;4.03;3.35;;;18.30;99.90;;;;;;5021057;28;20680;-64
2023/04/22 10:36:56;;;;;;;6.57;4.40;;;18.20;99.90;;;;;;5038823;28;20220;-64
2023/04/22 10:39:24;;;;;;;9.45;3.95;;;18.30;99.90;;;;;;5033916;28;20487;-64
2023/04/22 10:41:53;;;;;;;4.85;3.85;;;18.30;99.90;;;;;;5039262;28;20355;-65
2023/04/22 10:44:22;;;;;;;4.32;3.40;;;18.20;99.90;;;;;;5007834;28;20227;-64
2023/04/22 10:47:01;;;;;;;7.43;4.28;;;18.10;99.90;;;;;;5039144;28;20718;-64
2023/04/22 10:49:31;;;;;;;5.57;3.67;;;18.10;99.90;;;;;;5022160;28;20438;-65
2023/04/22 10:51:59;;;;;;;5.90;3.67;;;18.00;99.90;;;;;;5038296;28;20617;-64
2023/04/22 10:54:58;;;;;;;5.90;3.88;;;18.00;99.90;;;;;;5026429;28;20533;-65
2023/04/22 10:57:40;;;;;;;5.97;3.95;;;18.00;99.90;;;;;;5027986;28;20521;-64
2023/04/22 11:00:23;;;;;;;6.82;4.13;;;18.20;99.90;;;;;;5008934;28;20208;-65
2023/04/22 11:02:53;;;;;;;4.15;3.58;;;18.20;99.90;;;;;;5043361;28;20918;-65
2023/04/22 11:05:22;;;;;;;5.65;4.28;;;18.30;99.90;;;;;;4996218;28;21157;-65
2023/04/22 11:07:50;;;;;;;4.97;4.05;;;18.50;99.90;;;;;;5027385;28;20991;-64
2023/04/22 11:10:40;;;;;;;4.82;3.80;;;18.50;99.90;;;;;;4987211;28;20827;-65
2023/04/22 11:13:10;;;;;;;3.90;3.50;;;18.50;99.90;;;;;;5015907;28;20228;-64
2023/04/22 11:15:39;;;;;;;4.50;3.42;;;18.60;99.90;;;;;;4972926;28;20277;-64
2023/04/22 11:18:25;;;;;;;7.07;4.30;;;18.70;99.90;;;;;;5036757;28;20232;-64
2023/04/22 11:20:53;;;;;;;5.38;3.58;;;18.70;99.90;;;;;;5023428;28;20544;-65
2023/04/22 11:23:23;;;;;;;3.42;3.13;;;18.70;99.90;;;;;;5042319;28;20542;-65
2023/04/22 11:25:57;;;;;;;5.65;3.28;;;18.70;99.90;;;;;;5011567;28;20243;-64
2023/04/22 11:28:24;;;;;;;4.63;2.88;;;18.80;99.90;;;;;;5018387;28;20226;-64
2023/04/22 11:30:53;;;;;;;6.00;3.10;;;18.70;99.90;;;;;;4996185;28;20224;-65
2023/04/22 11:33:20;;;;;;;5.82;4.00;;;18.80;99.90;;;;;;5035191;28;20286;-64
2023/04/22 11:35:50;;;;;;;8.60;4.70;;;18.90;99.90;;;;;;5016760;28;20227;-65
2023/04/22 11:38:17;;;;;;;4.88;3.08;;;19.00;99.90;;;;;;5026771;28;20240;-65
2023/04/22 11:40:45;;;;;;;5.88;4.40;;;19.00;99.90;;;;;;5008306;28;20440;-66
2023/04/22 11:43:12;;;;;;;3.13;2.75;;;19.10;99.90;;;;;;5010323;28;20212;-64
2023/04/22 11:45:39;;;;;;;4.97;2.67;;;19.20;99.90;;;;;;4962497;28;20259;-65
2023/04/22 11:48:09;;;;;;;3.60;2.60;;;19.20;99.90;;;;;;4978078;28;20228;-65
2023/04/22 11:50:38;;;;;;;3.00;2.20;;;19.30;99.90;;;;;;5005417;28;20581;-65
2023/04/22 11:53:12;;;;;;;5.82;2.55;;;19.30;99.90;;;;;;5004725;28;20225;-65
2023/04/22 11:55:41;;;;;;;4.15;2.50;;;19.40;99.90;;;;;;5018912;28;20228;-65
2023/04/22 11:58:09;;;;;;;2.13;1.92;;;19.50;99.90;;;;;;5012221;28;20213;-65
2023/04/22 12:00:39;;;;;;;4.18;2.67;;;19.50;99.90;;;;;;4992666;28;20225;-65
2023/04/22 12:03:13;;;;;;;3.85;2.28;;;19.40;99.90;;;;;;5008325;28;20197;-65
2023/04/22 12:05:41;;;;;;;16.30;5.43;;;19.60;99.90;;;;;;5033278;28;20217;-65
2023/04/22 12:08:09;;;;;;;3.50;2.50;;;19.60;99.90;;;;;;5004334;28;20429;-65
2023/04/22 12:10:41;;;;;;;7.78;2.47;;;19.70;99.90;;;;;;5026113;28;20209;-65
2023/04/22 12:13:09;;;;;;;4.45;2.20;;;19.70;99.90;;;;;;4988422;28;20425;-65
2023/04/22 12:15:41;;;;;;;5.00;2.53;;;19.70;99.90;;;;;;5015719;28;20945;-65
2023/04/22 12:18:11;;;;;;;2.60;2.30;;;19.70;99.90;;;;;;4987402;28;20881;-65
2023/04/22 12:20:39;;;;;;;3.60;2.30;;;19.70;99.90;;;;;;5020883;28;20221;-65
2023/04/22 12:23:13;;;;;;;16.70;5.93;;;19.70;99.90;;;;;;5011565;28;21274;-65
2023/04/22 12:25:40;;;;;;;3.67;2.42;;;19.80;99.90;;;;;;5036889;28;20205;-65
2023/04/22 12:28:07;;;;;;;11.88;4.28;;;19.80;99.90;;;;;;5012383;28;20228;-65
2023/04/22 12:30:34;;;;;;;10.43;4.07;;;19.90;99.90;;;;;;5025449;28;20220;-65
2023/04/22 12:33:01;;;;;;;4.25;2.60;;;19.90;99.90;;;;;;5009961;28;20216;-65
2023/04/22 12:35:29;;;;;;;15.77;4.88;;;19.90;99.90;;;;;;5034226;28;20224;-65
2023/04/22 12:37:56;;;;;;;2.33;2.13;;;20.00;99.90;;;;;;5027891;28;20532;-65
2023/04/22 12:40:23;;;;;;;2.88;2.28;;;20.00;99.90;;;;;;5018279;28;20624;-65
2023/04/22 12:42:51;;;;;;;2.20;2.00;;;20.10;99.90;;;;;;4999873;28;20694;-65
2023/04/22 12:45:18;;;;;;;7.45;2.13;;;20.20;99.90;;;;;;5013467;28;20753;-65
2023/04/22 12:47:45;;;;;;;3.10;2.28;;;20.20;99.90;;;;;;5002684;28;20228;-66
2023/04/22 12:50:12;;;;;;;8.30;2.28;;;20.30;99.90;;;;;;4994019;28;20220;-65